sensor_id;sensor_type;location;lat;lon;timestamp;P1;durP1;ratioP1;P2;durP2;ratioP2
81312;SDS011;70780;52.722;5.724;2023-07-16T02:41:39;6.03;;;1.98;;
81312;SDS011;70780;52.722;5.724;2023-07-16T02:44:09;4.30;;;1.42;;
81312;SDS011;70780;52.722;5.724;2023-07-16T02:46:41;4.13;;;1.50;;
81312;SDS011;70780;52.722;5.724;2023-07-16T02:49:10;3.80;;;1.38;;
81312;SDS011;70780;52.722;5.724;2023-07-16T02:51:40;3.85;;;1.30;;
81312;SDS011;70780;52.722;5.724;2023-07-16T02:54:09;4.85;;;1.67;;
81312;SDS011;70780;52.722;5.724;2023-07-16T02:56:41;3.10;;;1.75;;
81312;SDS011;70780;52.722;5.724;2023-07-16T02:59:11;3.10;;;1.23;;
81312;SDS011;70780;52.722;5.724;2023-07-16T03:01:40;4.60;;;1.30;;
81312;SDS011;70780;52.722;5.724;2023-07-16T03:04:09;3.17;;;1.50;;
81312;SDS011;70780;52.722;5.724;2023-07-16T03:06:39;5.13;;;1.70;;
81312;SDS011;70780;52.722;5.724;2023-07-16T03:09:08;6.35;;;1.88;;
81312;SDS011;70780;52.722;5.724;2023-07-16T03:11:37;4.18;;;1.73;;
81312;SDS011;70780;52.722;5.724;2023-07-16T03:14:09;4.10;;;1.67;;
81312;SDS011;70780;52.722;5.724;2023-07-16T03:16:39;4.60;;;1.90;;
81312;SDS011;70780;52.722;5.724;2023-07-16T03:19:09;4.25;;;2.00;;
81312;SDS011;70780;52.722;5.724;2023-07-16T03:21:38;4.78;;;2.22;;
81312;SDS011;70780;52.722;5.724;2023-07-16T03:24:08;3.17;;;1.48;;
81312;SDS011;70780;52.722;5.724;2023-07-16T03:26:41;3.83;;;1.67;;
81312;SDS011;70780;52.722;5.724;2023-07-16T03:29:11;3.50;;;1.65;;
81312;SDS011;70780;52.722;5.724;2023-07-16T03:31:41;4.18;;;1.52;;
81312;SDS011;70780;52.722;5.724;2023-07-16T03:34:12;3.85;;;1.90;;
81312;SDS011;70780;52.722;5.724;2023-07-16T03:36:41;3.65;;;1.80;;
81312;SDS011;70780;52.722;5.724;2023-07-16T03:39:11;3.92;;;2.05;;
81312;SDS011;70780;52.722;5.724;2023-07-16T03:41:42;5.53;;;2.30;;
81312;SDS011;70780;52.722;5.724;2023-07-16T03:44:12;4.53;;;2.17;;
81312;SDS011;70780;52.722;5.724;2023-07-16T03:46:41;5.63;;;1.95;;
81312;SDS011;70780;52.722;5.724;2023-07-16T03:49:11;3.90;;;1.75;;
81312;SDS011;70780;52.722;5.724;2023-07-16T03:51:40;5.18;;;2.33;;
81312;SDS011;70780;52.722;5.724;2023-07-16T03:54:10;4.72;;;2.17;;
81312;SDS011;70780;52.722;5.724;2023-07-16T03:56:39;4.30;;;1.92;;
81312;SDS011;70780;52.722;5.724;2023-07-16T03:59:11;3.55;;;2.13;;
81312;SDS011;70780;52.722;5.724;2023-07-16T04:01:40;4.47;;;2.47;;
81312;SDS011;70780;52.722;5.724;2023-07-16T04:04:10;5.88;;;2.53;;
81312;SDS011;70780;52.722;5.724;2023-07-16T04:06:39;6.85;;;2.40;;
81312;SDS011;70780;52.722;5.724;2023-07-16T04:09:08;4.75;;;2.15;;
81312;SDS011;70780;52.722;5.724;2023-07-16T04:11:38;4.40;;;1.65;;
81312;SDS011;70780;52.722;5.724;2023-07-16T04:14:07;4.57;;;2.03;;
81312;SDS011;70780;52.722;5.724;2023-07-16T04:16:39;6.95;;;2.30;;
81312;SDS011;70780;52.722;5.724;2023-07-16T04:19:08;5.25;;;2.40;;
81312;SDS011;70780;52.722;5.724;2023-07-16T04:21:38;4.68;;;2.05;;
81312;SDS011;70780;52.722;5.724;2023-07-16T04:24:07;5.03;;;2.10;;
81312;SDS011;70780;52.722;5.724;2023-07-16T04:26:36;4.97;;;1.75;;
81312;SDS011;70780;52.722;5.724;2023-07-16T04:29:06;6.88;;;2.40;;
81312;SDS011;70780;52.722;5.724;2023-07-16T04:31:38;5.97;;;2.50;;
81312;SDS011;70780;52.722;5.724;2023-07-16T04:34:07;5.53;;;2.30;;
81312;SDS011;70780;52.722;5.724;2023-07-16T19:34:49;3.00;;;1.13;;
81312;SDS011;70780;52.722;5.724;2023-07-16T19:37:20;4.47;;;0.82;;
81312;SDS011;70780;52.722;5.724;2023-07-16T19:39:49;4.82;;;0.52;;
81312;SDS011;70780;52.722;5.724;2023-07-16T19:42:19;4.93;;;0.82;;
81312;SDS011;70780;52.722;5.724;2023-07-16T19:44:50;10.27;;;1.75;;
81312;SDS011;70780;52.722;5.724;2023-07-16T19:47:21;3.17;;;0.70;;
81312;SDS011;70780;52.722;5.724;2023-07-16T19:49:53;4.38;;;0.90;;
81312;SDS011;70780;52.722;5.724;2023-07-16T19:52:24;3.15;;;0.52;;
81312;SDS011;70780;52.722;5.724;2023-07-16T19:54:54;5.47;;;0.90;;
81312;SDS011;70780;52.722;5.724;2023-07-16T19:57:26;5.53;;;1.30;;
81312;SDS011;70780;52.722;5.724;2023-07-16T19:59:59;5.93;;;1.13;;
81312;SDS011;70780;52.722;5.724;2023-07-16T20:02:39;4.47;;;1.05;;
